ADDS METAR Data INFO
IDs: Format: Raw Decoded Include TAF

Data at: 1202 UTC 21 Jun 2018

KGCD 211155Z AUTO 23005KT 10SM SCT050 SCT080 BKN090 13/12 A3010 RMK AO2 LTG DSNT N AND NW 70024 T01300118 10138 20125
KGCD 211135Z AUTO 25004KT 10SM SCT080 OVC090 13/12 A3010 RMK AO2 T01310118
KGCD 211115Z AUTO 23005KT 10SM BKN090 OVC110 13/12 A3010 RMK AO2 LTG DSNT NW T01280118
KGCD 211055Z AUTO 26007KT 10SM SCT090 OVC110 13/12 A3009 RMK AO2 LTG DSNT NW T01280118
KGCD 211035Z AUTO 23005KT 10SM OVC110 13/12 A3008 RMK AO2 T01250117
KGCD 211015Z AUTO 00000KT 10SM OVC110 13/12 A3007 RMK AO2 T01270117
KGCD 210955Z AUTO 00000KT 10SM OVC110 14/12 A3007 RMK AO2 LTG DSNT NW T01360115
KGCD 210935Z AUTO 19005KT 10SM BKN110 14/12 A3006 RMK AO2 T01360115
KGCD 210915Z AUTO 15007KT 10SM CLR 14/12 A3006 RMK AO2 T01350117
KGCD 210855Z AUTO 14005KT 10SM SCT120 14/12 A3006 RMK AO2 LTG DSNT W AND NW T01350117
KGCD 210835Z AUTO 12006KT 10SM CLR 13/12 A3007 RMK AO2 T01340117
KGCD 210815Z AUTO 12005KT 10SM CLR 13/12 A3007 RMK AO2 LTG DSNT W T01320118
KGCD 210755Z AUTO 11006KT 10SM SCT120 13/12 A3007 RMK AO2 T01310120 402820117
KGCD 210735Z AUTO 09008KT 10SM BKN120 14/12 A3008 RMK AO2 T01350120
KGCD 210715Z AUTO 07004KT 10SM CLR 14/12 A3009 RMK AO2 T01380117
KGCD 210655Z AUTO 08004KT 10SM CLR 13/12 A3010 RMK AO2 T01340121
KGCD 210635Z AUTO 11004KT 10SM CLR 13/12 A3010 RMK AO2 T01320119
KGCD 210615Z AUTO 00000KT 10SM CLR 13/12 A3010 RMK AO2 T01310120
KGCD 210555Z AUTO 30004KT 10SM CLR 13/12 A3011 RMK AO2 LTG DSNT SE 60024 T01340117 10240 20134
KGCD 210535Z AUTO 00000KT 10SM CLR 14/12 A3010 RMK AO2 LTG DSNT NE THRU SE T01380120
KGCD 210515Z AUTO 15006KT 10SM CLR 14/13 A3012 RMK AO2 T01380126
KGCD 210455Z AUTO 00000KT 10SM CLR 15/12 A3011 RMK AO2 T01450122
KGCD 210435Z AUTO 01004KT 10SM SCT110 15/13 A3010 RMK AO2 LTG DSNT SE T01450128
KGCD 210415Z AUTO 07007KT 10SM SCT080 OVC100 15/13 A3009 RMK AO2 T01450131
KGCD 210355Z AUTO 08005KT 10SM -RA SCT080 BKN100 OVC120 15/13 A3010 RMK AO2 LTG DSNT E P0001 T01460131
KGCD 210335Z AUTO 06007KT 10SM SCT095 BKN110 15/13 A3012 RMK AO2 P0001 T01490128
KGCD 210315Z AUTO 11008KT 10SM SCT060 SCT075 OVC095 15/12 A3012 RMK AO2 P0001 T01480121
KGCD 210255Z AUTO 14013KT 10SM -RA SCT060 OVC085 15/12 A3006 RMK AO2 LTG DSNT SE S AND NW P0012 60023 T01510119
KGCD 210235Z AUTO 16008KT 10SM -RA SCT023 BKN065 OVC080 15/12 A3010 RMK AO2 LTG DSNT SE AND S P0011 T01510121
KGCD 210215Z AUTO 19005KT 5SM VCTSRA SCT022 BKN026 OVC038 15/12 A3011 RMK AO2 LTG DSNT N THRU S P0008 T01520115
KGCD 210155Z AUTO 22015G24KT 4SM TSRA SCT025 BKN032 OVC070 15/12 A3012 RMK AO2 LTG DSNT ALQS P0010 T01530118
KGCD 210135Z AUTO 21013G19KT 7SM RA SCT031 BKN055 OVC080 16/12 A3011 RMK AO2 LTG DSNT SE S AND NW P0005 T01640123
KGCD 210115Z AUTO 23011G19KT 10SM -VCTSRA SCT050 BKN060 OVC085 17/13 A3009 RMK AO2 LTG DSNT ALQS P0002 T01700126
KGCD 210055Z AUTO 24012G20KT 10SM -RA SCT060 BKN080 OVC085 18/13 A3006 RMK AO2 LTG DSNT SE THRU SW T01790128
KGCD 210035Z AUTO 25018G31KT 10SM -TSRA SCT060 SCT070 OVC090 22/09 A3003 RMK AO2 LTG DSNT ALQS T02160094
KGCD 210015Z AUTO 31008KT 250V010 10SM -TSRA OVC090 23/11 A3002 RMK AO2 LTG DSNT SW AND W T02340107
KGCD 202355Z AUTO 04003KT 10SM VCTS BKN100 24/11 A3001 RMK AO2 LTG DSNT SW AND W T02400105 10282 20239
KGCD 202335Z AUTO 00000KT 10SM CLR 25/10 A3001 RMK AO2 LTG DSNT SW AND W T02540102
KGCD 202315Z AUTO 00000KT 10SM CLR 26/09 A3001 RMK AO2 LTG DSNT SW AND W T02580089
KGCD 202255Z AUTO 00000KT 10SM CLR 27/08 A3001 RMK AO2 T02670084
KGCD 202235Z AUTO 00000KT 10SM -RA SCT026 SCT037 SCT046 27/10 A3002 RMK AO2 T02670096
KGCD 202215Z AUTO 17006KT 10SM -RA SCT036 SCT047 BKN100 25/11 A3004 RMK AO2 T02500109
KGCD 202155Z AUTO 16009KT 10SM BKN100 BKN110 27/08 A3004 RMK AO2 T02690083
KGCD 202135Z AUTO 23005KT 10SM BKN100 BKN120 27/07 A3005 RMK AO2 LTG DSNT W T02700068
KGCD 202115Z AUTO 29004KT 10SM BKN100 28/08 A3005 RMK AO2 LTG DSNT SW AND W T02770077
KGCD 202055Z AUTO 00000KT 10SM SCT110 26/08 A3005 RMK AO2 T02630077
KGCD 202035Z AUTO 30006KT 10SM CLR 28/09 A3005 RMK AO2 T02800091
KGCD 202015Z AUTO 00000KT 10SM CLR 27/09 A3006 RMK AO2 T02700091
KGCD 201955Z AUTO 27005KT 10SM CLR 27/10 A3007 RMK AO2 T02690102
KGCD 201935Z AUTO 30009KT 10SM CLR 27/10 A3007 RMK AO2 T02660102
KGCD 201915Z AUTO 32009KT 290V350 10SM CLR 26/11 A3008 RMK AO2 T02630106
KGCD 201855Z AUTO 34008KT 10SM CLR 26/11 A3008 RMK AO2 T02570108
KGCD 201835Z AUTO 00000KT 10SM CLR 25/11 A3009 RMK AO2 T02500106
KGCD 201815Z AUTO 22003KT 10SM CLR 25/11 A3009 RMK AO2 T02500108
KGCD 201755Z AUTO 00000KT 10SM CLR 24/11 A3010 RMK AO2 T02410106 10242 20117
KGCD 201735Z AUTO 06003KT 10SM CLR 24/11 A3010 RMK AO2 T02360110
KGCD 201715Z AUTO 07004KT 10SM CLR 23/10 A3010 RMK AO2 T02300103
KGCD 201655Z AUTO 08006KT 10SM CLR 22/11 A3011 RMK AO2 T02210106
KGCD 201635Z AUTO 06004KT 10SM CLR 21/11 A3011 RMK AO2 T02130110
KGCD 201615Z AUTO 08005KT 10SM CLR 21/12 A3012 RMK AO2 T02060116
KGCD 201555Z AUTO 07004KT 10SM CLR 19/11 A3012 RMK AO2 T01920109
KGCD 201535Z AUTO 07005KT 10SM CLR 18/11 A3013 RMK AO2 T01820111
KGCD 201515Z AUTO 09004KT 10SM CLR 17/11 A3013 RMK AO2 T01710112
KGCD 201455Z AUTO 09004KT 10SM CLR 16/11 A3013 RMK AO2 T01600108
KGCD 201435Z AUTO 09006KT 10SM CLR 15/11 A3013 RMK AO2 T01500105
KGCD 201415Z AUTO 10005KT 10SM CLR 14/10 A3013 RMK AO2 T01440102
KGCD 201355Z AUTO 10005KT 10SM CLR 14/10 A3013 RMK AO2 T01400100
KGCD 201335Z AUTO 12004KT 10SM CLR 13/10 A3013 RMK AO2 T01280097
KGCD 201315Z AUTO 11004KT 10SM CLR 13/09 A3013 RMK AO2 T01250093
KGCD 201255Z AUTO 12008KT 10SM CLR 13/09 A3013 RMK AO2 T01250093
KGCD 201235Z AUTO 12007KT 10SM CLR 12/09 A3013 RMK AO2 T01180091
KGCD 201215Z AUTO 13008KT 10SM CLR 12/09 A3013 RMK AO2 T01170093
KGCD 201155Z AUTO 13007KT 10SM CLR 12/09 A3013 RMK AO2 T01170093 10160 20117
KGCD 201135Z AUTO 12006KT 10SM CLR 12/09 A3013 RMK AO2 T01200093
KGCD 201115Z AUTO 14007KT 10SM CLR 12/10 A3013 RMK AO2 T01220095
KGCD 201055Z AUTO 12006KT 10SM CLR 12/09 A3013 RMK AO2 T01180094
KGCD 201035Z AUTO 14007KT 10SM CLR 12/10 A3014 RMK AO2 T01240095
KGCD 201015Z AUTO 13006KT 10SM CLR 12/10 A3014 RMK AO2 T01220096
KGCD 200955Z AUTO 11007KT 10SM CLR 12/10 A3014 RMK AO2 T01220097
KGCD 200935Z AUTO 11006KT 10SM CLR 12/10 A3014 RMK AO2 T01220100
KGCD 200915Z AUTO 12006KT 10SM CLR 13/10 A3014 RMK AO2 T01260101
KGCD 200855Z AUTO 11007KT 10SM CLR 13/10 A3014 RMK AO2 T01280100
KGCD 200835Z AUTO 10007KT 10SM CLR 13/10 A3014 RMK AO2 T01310103
KGCD 200815Z AUTO 10005KT 10SM CLR 13/10 A3014 RMK AO2 T01300104
KGCD 200755Z AUTO 10007KT 10SM CLR 14/11 A3014 RMK AO2 T01350106 402280120
KGCD 200735Z AUTO 10005KT 10SM CLR 14/11 A3015 RMK AO2 T01420106
KGCD 200715Z AUTO 11005KT 10SM CLR 15/11 A3015 RMK AO2 T01450108
KGCD 200655Z AUTO 11005KT 10SM CLR 15/11 A3016 RMK AO2 T01480109
KGCD 200635Z AUTO 09005KT 10SM CLR 15/11 A3016 RMK AO2 T01490113
KGCD 200615Z AUTO 11007KT 10SM CLR 15/11 A3016 RMK AO2 T01510111
KGCD 200555Z AUTO 10009KT 10SM CLR 16/12 A3015 RMK AO2 T01600115 10219 20160
KGCD 200535Z AUTO 10008KT 10SM CLR 16/12 A3015 RMK AO2 T01630115
KGCD 200515Z AUTO 09008KT 10SM CLR 16/12 A3015 RMK AO2 T01610117
KGCD 200455Z AUTO 09005KT 10SM CLR 17/11 A3015 RMK AO2 T01680110
KGCD 200435Z AUTO 00000KT 10SM SCT085 19/11 A3015 RMK AO2 T01870106
KGCD 200415Z AUTO 00000KT 10SM BKN085 19/11 A3015 RMK AO2 T01860108
KGCD 200355Z AUTO 00000KT 10SM SCT085 20/10 A3014 RMK AO2 T01950102
KGCD 200335Z AUTO 00000KT 10SM SCT085 20/10 A3014 RMK AO2 T02010101
KGCD 200315Z AUTO 00000KT 10SM SCT085 21/11 A3014 RMK AO2 T02090112
KGCD 200255Z AUTO 00000KT 10SM SCT085 21/11 A3014 RMK AO2 T02140114
KGCD 200235Z AUTO 00000KT 10SM SCT080 21/11 A3013 RMK AO2 T02110114
KGCD 200215Z AUTO 00000KT 10SM BKN080 22/11 A3013 RMK AO2 T02150106
KGCD 200155Z AUTO 00000KT 10SM OVC080 22/11 A3013 RMK AO2 T02150108
KGCD 200135Z AUTO 00000KT 10SM OVC080 21/10 A3014 RMK AO2 T02100103
KGCD 200115Z AUTO 00000KT 10SM OVC080 21/11 A3014 RMK AO2 T02100106
KGCD 200055Z AUTO 00000KT 10SM OVC080 21/10 A3014 RMK AO2 T02100104
KGCD 200035Z AUTO 00000KT 10SM OVC080 21/11 A3014 RMK AO2 T02110111
KGCD 200015Z AUTO 00000KT 10SM OVC080 21/10 A3014 RMK AO2 T02100103